Relevés horaires Beauvechain (Belgique)


Relevés horaires à Beauvechain - Lundi 08 Août 2016
Heure UTC1 Température [°C] Vent [km/h] Hum. [%] Pres.4 [hPa] Visi. [Km] Nébu. [octa] Préc.5 [mm] Cond.
2m. Res. Ros. Dir.2 Vit. Moy. Raf.3
23:00 13.8 13.8 8.9 SO 3.7 3.7 3.7 72 1022(-0.1/3h) 20 -- -- --
22:00 14.1 14.1 9.0 SO 3.7 3.7 3.7 71 1022.1(0.1/3h) 20 -- -- --
21:00 14.5 14.5 8.7 NNO 1.9 0.0 0.0 68 1022.1(0.4/3h) 20 -- -- --
20:00 14.8 14.8 8.9 NNO 1.9 3.7 5.6 68 1022.1(0.6/3h) 15 -- -- --
19:00 15.6 15.6 8.5 NO 3.7 7.4 9.3 63 1022(0.9/3h) 20 -- -- --
18:00 17.1 17.1 9.3 NNO 7.4 0.0 0.0 60 1021.5(0.5/3h) 20 -- -- --
17:00 19.2 19.2 11.2 NNO 7.4 7.4 11.1 60 1021.2(0.2/3h) 20 -- -- --
16:00 20.0 20.0 9.4 NO 5.6 9.3 14.8 50 1020.7(-0.3/3h) 19 -- -- --
15:00 20.4 20.4 10.3 ONO 7.4 13.0 18.5 52 1020.7(-0.7/3h) 30 5/8 -- --
14:00 20.5 20.5 10.6 O 11.1 11.1 18.5 53 1020.7(-0.6/3h) 30 5/8 -- --
13:00 19.1 19.1 12.6 O 5.6 9.3 13.0 66 1021.2(-0.2/3h) 20 6/8 -- --
12:00 18.5 18.5 14.0 OSO 7.4 11.1 14.8 75 1021.5(0.0/3h) 20 4/8 -- --
11:00 16.3 16.3 13.1 O 5.6 7.4 11.1 81 1021.7(0.4/3h) 15 7/8 -- --
10:00 16.6 16.6 13.0 OSO 7.4 9.3 13.0 79 1021.6(0.2/3h) 15 7/8 -- --
09:00 15.8 15.6 13.3 OSO 9.3 -- -- 85 1021.6(0.4/3h) 15 6/8 -- --
08:00 15.1 14.6 13.2 SSO 11.1 11.1 14.8 88 1021.3(0.3/3h) 10 7/8 -- --
07:00 14.6 14 12.9 SSO 11.1 11.1 14.8 90 1021.5(0.4/3h) 7 7/8 -- --
06:00 14.0 13.3 12.5 SSO 11.1 11.1 14.8 91 1021.3(0.3/3h) 8 7/8 0/0h
--
05:00 13.4 12.5 12.3 SO 11.1 11.1 16.7 93 1021.3(0.0/3h) 12 2/8 -- --
04:00 13.8 13 12.2 SSO 11.1 11.1 14.8 90 1021.1(-0.3/3h) 18 -- -- --
03:00 14.5 13.9 11.8 SSO 11.1 11.1 14.8 84 1021(-0.8/3h) 20 -- -- --
02:00 15.9 15.6 12.2 SSO 11.1 11.1 14.8 79 1021(-1.1/3h) 20 -- -- --
01:00 17.1 17 15.1 SSO 11.1 11.1 14.8 88 1021.2(-1.2/3h) 20 -- -- --
00:00 18.2 18.2 15.7 SSO 11.1 -- -- 85 1021.7 20 -- 0/0h
--

1 Coordinated Universal Time. Actuellement il est 07:00 locale et 06:00 UTC.

2 Le vent souffle depuis la direction indiquée vers la direction oposée.

3 Les rafales max. sont disponible 40 min après l'heure du relevé.

4 Pour les stations d'altitude (plus de 600m) le géopotentiel du niveau le plus proche de la pression obligatoire est indiqué.

5 Les stations disposant d'un diffuseur peuvent indiquer "trace". Cela signifie que des précipitations ont touchés le sol mais que la quantité est inférieure à 0.1 mm.

Récapitulatif de la journée
Température [°C] Vent [km/h] Ensoleillement4 [h] Precipitations totale5 [mm] Pression [Hpa]
Min1 Max.2 Moy.3 Max. Min Max.
13.3 21.1 8.4 18.5 0 h 0 min 0 1020.7 1022.1

1 Température minimale relevée entre 18:00 UTC la veille et 18:00 UTC le jour donné.

2 Température maximale relevée entre 06:00 UTC le jour donné et 06:00 UTC le lendemain.

3 Vent moyen de la journée basé sur les relevés horaires.

4 Ensoleillement en heures relevé entre 06:00 UTC la veille et 06:00 UTC le jour donné.

5 Précipitations totales tombées entre 06:00 UTC la jour donné et 06:00 UTC le lendemain.

Graphiques horaires